Terminal Aerodrome Forecast
Issued by NWS Detroit/Pontiac, MI

Home | Current Version | Previous Version | Text Only | Print | Product List | Glossary On
Versions: 1 2 3 4 5 6 7 8 9 10 11 12 13 14
000
FTUS43 KDTX 131700
TAFFNT
TAF
KFNT 131725Z 1318/1418 26012G20KT P6SM SCT030
     FM132000 27010KT P6SM BKN050
     FM140100 24003KT P6SM SCT040
     FM140500 VRB04KT P6SM OVC040
     FM141400 23007KT P6SM SCT030=

USA.gov is the U.S. government's official web portal to all federal, state and local government web resources and services.